sensor_id;sensor_type;location;lat;lon;timestamp;temperature;humidity
3330;DHT22;1677;49.576;10.990;2022-08-24T00:02:04;20.70;97.10
3330;DHT22;1677;49.576;10.990;2022-08-24T00:04:30;20.80;97.70
3330;DHT22;1677;49.576;10.990;2022-08-24T00:06:56;21.40;96.00
3330;DHT22;1677;49.576;10.990;2022-08-24T00:09:21;22.10;93.90
3330;DHT22;1677;49.576;10.990;2022-08-24T00:11:47;22.70;92.20
3330;DHT22;1677;49.576;10.990;2022-08-24T00:14:12;23.10;91.10
3330;DHT22;1677;49.576;10.990;2022-08-24T00:16:38;23.40;90.10
3330;DHT22;1677;49.576;10.990;2022-08-24T00:19:04;23.00;90.20
3330;DHT22;1677;49.576;10.990;2022-08-24T00:21:30;23.30;89.70
3330;DHT22;1677;49.576;10.990;2022-08-24T00:23:55;23.30;89.00
3330;DHT22;1677;49.576;10.990;2022-08-24T00:26:21;23.00;90.00
3330;DHT22;1677;49.576;10.990;2022-08-24T00:28:47;22.50;90.80
3330;DHT22;1677;49.576;10.990;2022-08-24T00:31:12;22.10;92.00
3330;DHT22;1677;49.576;10.990;2022-08-24T00:33:38;21.60;94.10
3330;DHT22;1677;49.576;10.990;2022-08-24T00:36:04;21.20;95.50
3330;DHT22;1677;49.576;10.990;2022-08-24T00:38:31;20.90;96.40
3330;DHT22;1677;49.576;10.990;2022-08-24T00:40:56;20.50;97.40
3330;DHT22;1677;49.576;10.990;2022-08-24T00:43:24;20.40;98.30
3330;DHT22;1677;49.576;10.990;2022-08-24T00:46:12;20.30;98.80
3330;DHT22;1677;49.576;10.990;2022-08-24T00:48:40;20.00;99.60
3330;DHT22;1677;49.576;10.990;2022-08-24T00:51:36;19.80;99.90
3330;DHT22;1677;49.576;10.990;2022-08-24T00:54:07;19.70;99.90
3330;DHT22;1677;49.576;10.990;2022-08-24T00:56:38;19.70;99.90
3330;DHT22;1677;49.576;10.990;2022-08-24T00:59:16;20.30;99.90
3330;DHT22;1677;49.576;10.990;2022-08-24T01:01:43;21.10;99.60
3330;DHT22;1677;49.576;10.990;2022-08-24T01:04:17;21.70;97.70
3330;DHT22;1677;49.576;10.990;2022-08-24T01:06:44;22.30;95.70
3330;DHT22;1677;49.576;10.990;2022-08-24T01:09:10;22.30;95.10
3330;DHT22;1677;49.576;10.990;2022-08-24T01:11:36;22.60;94.20
3330;DHT22;1677;49.576;10.990;2022-08-24T01:14:03;22.50;94.00
3330;DHT22;1677;49.576;10.990;2022-08-24T01:16:29;22.30;94.30
3330;DHT22;1677;49.576;10.990;2022-08-24T01:19:25;21.90;94.70
3330;DHT22;1677;49.576;10.990;2022-08-24T01:22:05;21.00;97.30
3330;DHT22;1677;49.576;10.990;2022-08-24T01:24:34;20.40;99.10
3330;DHT22;1677;49.576;10.990;2022-08-24T01:27:00;20.20;99.90
3330;DHT22;1677;49.576;10.990;2022-08-24T01:29:27;19.90;99.90
3330;DHT22;1677;49.576;10.990;2022-08-24T01:31:56;19.70;99.90
3330;DHT22;1677;49.576;10.990;2022-08-24T01:34:22;19.60;99.90
3330;DHT22;1677;49.576;10.990;2022-08-24T01:36:50;19.50;99.90
3330;DHT22;1677;49.576;10.990;2022-08-24T01:39:38;19.30;99.90
3330;DHT22;1677;49.576;10.990;2022-08-24T01:42:05;19.20;99.90
3330;DHT22;1677;49.576;10.990;2022-08-24T01:44:32;19.00;99.90
3330;DHT22;1677;49.576;10.990;2022-08-24T01:47:01;19.00;99.90
3330;DHT22;1677;49.576;10.990;2022-08-24T01:49:30;19.00;99.90
3330;DHT22;1677;49.576;10.990;2022-08-24T01:51:56;19.50;99.90
3330;DHT22;1677;49.576;10.990;2022-08-24T01:54:23;20.30;99.90
3330;DHT22;1677;49.576;10.990;2022-08-24T01:56:48;20.80;99.90
3330;DHT22;1677;49.576;10.990;2022-08-24T01:59:14;21.20;99.20
3330;DHT22;1677;49.576;10.990;2022-08-24T02:01:47;21.40;98.40
3330;DHT22;1677;49.576;10.990;2022-08-24T02:04:14;21.40;98.00
3330;DHT22;1677;49.576;10.990;2022-08-24T02:06:40;21.40;97.60
3330;DHT22;1677;49.576;10.990;2022-08-24T02:09:06;21.20;97.80
3330;DHT22;1677;49.576;10.990;2022-08-24T02:11:32;20.70;98.90
3330;DHT22;1677;49.576;10.990;2022-08-24T02:13:58;20.10;99.90
3330;DHT22;1677;49.576;10.990;2022-08-24T02:16:25;19.70;99.90
3330;DHT22;1677;49.576;10.990;2022-08-24T02:18:51;19.30;99.90
3330;DHT22;1677;49.576;10.990;2022-08-24T02:21:17;19.10;99.90
3330;DHT22;1677;49.576;10.990;2022-08-24T02:23:43;19.00;99.90
3330;DHT22;1677;49.576;10.990;2022-08-24T02:26:10;18.80;99.90
3330;DHT22;1677;49.576;10.990;2022-08-24T02:28:36;18.60;99.90
3330;DHT22;1677;49.576;10.990;2022-08-24T02:31:03;18.50;99.90
3330;DHT22;1677;49.576;10.990;2022-08-24T02:33:31;18.40;99.90
3330;DHT22;1677;49.576;10.990;2022-08-24T02:35:56;18.30;99.90
3330;DHT22;1677;49.576;10.990;2022-08-24T02:38:22;18.20;99.90
3330;DHT22;1677;49.576;10.990;2022-08-24T02:40:48;18.10;99.90
3330;DHT22;1677;49.576;10.990;2022-08-24T02:43:14;18.50;99.90
3330;DHT22;1677;49.576;10.990;2022-08-24T02:45:41;19.10;99.90
3330;DHT22;1677;49.576;10.990;2022-08-24T02:48:08;19.80;99.90
3330;DHT22;1677;49.576;10.990;2022-08-24T02:50:38;20.40;99.90
3330;DHT22;1677;49.576;10.990;2022-08-24T02:53:04;20.80;99.90
3330;DHT22;1677;49.576;10.990;2022-08-24T02:55:29;20.90;99.90
3330;DHT22;1677;49.576;10.990;2022-08-24T02:57:55;20.80;99.90
3330;DHT22;1677;49.576;10.990;2022-08-24T03:00:21;20.50;99.90
3330;DHT22;1677;49.576;10.990;2022-08-24T03:02:47;20.20;99.90
3330;DHT22;1677;49.576;10.990;2022-08-24T03:05:12;19.60;99.90
3330;DHT22;1677;49.576;10.990;2022-08-24T03:07:38;19.20;99.90
3330;DHT22;1677;49.576;10.990;2022-08-24T03:10:05;18.90;99.90
3330;DHT22;1677;49.576;10.990;2022-08-24T03:12:31;18.70;99.90
3330;DHT22;1677;49.576;10.990;2022-08-24T03:14:59;18.50;99.90
3330;DHT22;1677;49.576;10.990;2022-08-24T03:17:27;18.30;99.90
3330;DHT22;1677;49.576;10.990;2022-08-24T03:19:56;18.20;99.90
3330;DHT22;1677;49.576;10.990;2022-08-24T03:22:21;18.00;99.90
3330;DHT22;1677;49.576;10.990;2022-08-24T03:24:47;17.90;99.90
3330;DHT22;1677;49.576;10.990;2022-08-24T03:27:13;17.80;99.90
3330;DHT22;1677;49.576;10.990;2022-08-24T03:29:38;17.60;99.90
3330;DHT22;1677;49.576;10.990;2022-08-24T03:32:04;17.50;99.90
3330;DHT22;1677;49.576;10.990;2022-08-24T03:34:30;17.80;99.90
3330;DHT22;1677;49.576;10.990;2022-08-24T03:36:55;18.40;99.90
3330;DHT22;1677;49.576;10.990;2022-08-24T03:39:21;19.30;99.90
3330;DHT22;1677;49.576;10.990;2022-08-24T03:41:47;19.80;99.90
3330;DHT22;1677;49.576;10.990;2022-08-24T03:44:13;20.10;99.90
3330;DHT22;1677;49.576;10.990;2022-08-24T03:46:38;20.10;99.90
3330;DHT22;1677;49.576;10.990;2022-08-24T03:49:06;20.10;99.90
3330;DHT22;1677;49.576;10.990;2022-08-24T03:51:33;19.80;99.90
3330;DHT22;1677;49.576;10.990;2022-08-24T03:54:00;19.30;99.90
3330;DHT22;1677;49.576;10.990;2022-08-24T03:56:26;19.10;99.90
3330;DHT22;1677;49.576;10.990;2022-08-24T03:58:52;18.60;99.90
3330;DHT22;1677;49.576;10.990;2022-08-24T04:01:18;18.40;99.90
3330;DHT22;1677;49.576;10.990;2022-08-24T04:03:46;18.10;99.90
3330;DHT22;1677;49.576;10.990;2022-08-24T04:06:13;18.00;99.90
3330;DHT22;1677;49.576;10.990;2022-08-24T04:08:40;17.80;99.90
3330;DHT22;1677;49.576;10.990;2022-08-24T04:11:12;17.70;99.90
3330;DHT22;1677;49.576;10.990;2022-08-24T04:13:38;17.50;99.90
3330;DHT22;1677;49.576;10.990;2022-08-24T04:16:09;17.50;99.90
3330;DHT22;1677;49.576;10.990;2022-08-24T04:18:35;17.40;99.90
3330;DHT22;1677;49.576;10.990;2022-08-24T04:21:01;17.40;99.90
3330;DHT22;1677;49.576;10.990;2022-08-24T04:23:28;17.30;99.90
3330;DHT22;1677;49.576;10.990;2022-08-24T04:25:54;17.30;99.90
3330;DHT22;1677;49.576;10.990;2022-08-24T04:28:20;17.70;99.90
3330;DHT22;1677;49.576;10.990;2022-08-24T04:30:48;18.50;99.90
3330;DHT22;1677;49.576;10.990;2022-08-24T04:33:18;19.10;99.90
3330;DHT22;1677;49.576;10.990;2022-08-24T04:35:46;19.60;99.90
3330;DHT22;1677;49.576;10.990;2022-08-24T04:38:13;19.70;99.90
3330;DHT22;1677;49.576;10.990;2022-08-24T04:40:40;19.60;99.90
3330;DHT22;1677;49.576;10.990;2022-08-24T04:43:06;19.40;99.90
3330;DHT22;1677;49.576;10.990;2022-08-24T04:45:34;19.20;99.90
3330;DHT22;1677;49.576;10.990;2022-08-24T04:48:02;18.90;99.90
3330;DHT22;1677;49.576;10.990;2022-08-24T04:50:28;18.40;99.90
3330;DHT22;1677;49.576;10.990;2022-08-24T04:52:53;18.00;99.90
3330;DHT22;1677;49.576;10.990;2022-08-24T04:55:19;17.80;99.90
3330;DHT22;1677;49.576;10.990;2022-08-24T04:57:44;17.60;99.90
3330;DHT22;1677;49.576;10.990;2022-08-24T05:00:10;17.60;99.90
3330;DHT22;1677;49.576;10.990;2022-08-24T05:02:37;17.50;99.90
3330;DHT22;1677;49.576;10.990;2022-08-24T05:05:09;17.30;99.90
3330;DHT22;1677;49.576;10.990;2022-08-24T05:07:36;17.30;99.90
3330;DHT22;1677;49.576;10.990;2022-08-24T05:10:03;17.30;99.90
3330;DHT22;1677;49.576;10.990;2022-08-24T05:12:29;17.30;99.90
3330;DHT22;1677;49.576;10.990;2022-08-24T05:14:54;17.30;99.90
3330;DHT22;1677;49.576;10.990;2022-08-24T05:17:20;17.30;99.90
3330;DHT22;1677;49.576;10.990;2022-08-24T05:19:45;17.50;99.90
3330;DHT22;1677;49.576;10.990;2022-08-24T05:22:11;18.00;99.90
3330;DHT22;1677;49.576;10.990;2022-08-24T05:24:37;18.60;99.90
3330;DHT22;1677;49.576;10.990;2022-08-24T05:27:02;19.20;99.90
3330;DHT22;1677;49.576;10.990;2022-08-24T05:29:28;19.50;99.90
3330;DHT22;1677;49.576;10.990;2022-08-24T05:31:58;19.60;99.90
3330;DHT22;1677;49.576;10.990;2022-08-24T05:34:24;19.40;99.90
3330;DHT22;1677;49.576;10.990;2022-08-24T05:36:49;19.10;99.90
3330;DHT22;1677;49.576;10.990;2022-08-24T05:39:15;18.90;99.90
3330;DHT22;1677;49.576;10.990;2022-08-24T05:41:42;18.60;99.90
3330;DHT22;1677;49.576;10.990;2022-08-24T05:44:09;18.30;99.90
3330;DHT22;1677;49.576;10.990;2022-08-24T05:46:34;18.10;99.90
3330;DHT22;1677;49.576;10.990;2022-08-24T05:49:00;17.90;99.90
3330;DHT22;1677;49.576;10.990;2022-08-24T05:51:28;17.80;99.90
3330;DHT22;1677;49.576;10.990;2022-08-24T05:53:54;17.80;99.90
3330;DHT22;1677;49.576;10.990;2022-08-24T05:56:20;17.70;99.90
3330;DHT22;1677;49.576;10.990;2022-08-24T05:58:46;17.70;99.90
3330;DHT22;1677;49.576;10.990;2022-08-24T06:01:15;17.60;99.90
3330;DHT22;1677;49.576;10.990;2022-08-24T06:03:42;17.60;99.90
3330;DHT22;1677;49.576;10.990;2022-08-24T06:06:09;17.50;99.90
3330;DHT22;1677;49.576;10.990;2022-08-24T06:08:36;17.60;99.90
3330;DHT22;1677;49.576;10.990;2022-08-24T06:11:03;17.70;99.90
3330;DHT22;1677;49.576;10.990;2022-08-24T06:13:29;18.20;99.90
3330;DHT22;1677;49.576;10.990;2022-08-24T06:16:21;18.90;99.90
3330;DHT22;1677;49.576;10.990;2022-08-24T06:18:49;19.60;99.90
3330;DHT22;1677;49.576;10.990;2022-08-24T06:21:16;20.00;99.90
3330;DHT22;1677;49.576;10.990;2022-08-24T06:23:42;20.10;99.90
3330;DHT22;1677;49.576;10.990;2022-08-24T06:26:09;20.10;99.90
3330;DHT22;1677;49.576;10.990;2022-08-24T06:28:54;20.00;99.90
3330;DHT22;1677;49.576;10.990;2022-08-24T06:31:21;19.80;99.90
3330;DHT22;1677;49.576;10.990;2022-08-24T06:33:49;19.50;99.90
3330;DHT22;1677;49.576;10.990;2022-08-24T06:36:14;19.30;99.90
3330;DHT22;1677;49.576;10.990;2022-08-24T06:38:40;19.10;99.90
3330;DHT22;1677;49.576;10.990;2022-08-24T06:41:06;18.90;99.90
3330;DHT22;1677;49.576;10.990;2022-08-24T06:43:32;18.70;99.90
3330;DHT22;1677;49.576;10.990;2022-08-24T06:45:58;18.70;99.90
3330;DHT22;1677;49.576;10.990;2022-08-24T06:48:24;18.70;99.90
3330;DHT22;1677;49.576;10.990;2022-08-24T06:50:50;18.70;99.90
3330;DHT22;1677;49.576;10.990;2022-08-24T06:53:16;18.70;99.90
3330;DHT22;1677;49.576;10.990;2022-08-24T06:55:54;18.70;99.90
3330;DHT22;1677;49.576;10.990;2022-08-24T06:58:22;18.80;99.90
3330;DHT22;1677;49.576;10.990;2022-08-24T07:00:48;18.70;99.90
3330;DHT22;1677;49.576;10.990;2022-08-24T07:03:14;19.00;99.90
3330;DHT22;1677;49.576;10.990;2022-08-24T07:05:40;19.60;99.90
3330;DHT22;1677;49.576;10.990;2022-08-24T07:08:06;20.40;99.90
3330;DHT22;1677;49.576;10.990;2022-08-24T07:10:33;20.90;99.90
3330;DHT22;1677;49.576;10.990;2022-08-24T07:12:59;21.30;99.90
3330;DHT22;1677;49.576;10.990;2022-08-24T07:15:25;21.50;99.90
3330;DHT22;1677;49.576;10.990;2022-08-24T07:17:51;21.40;99.90
3330;DHT22;1677;49.576;10.990;2022-08-24T07:20:18;21.10;99.90
3330;DHT22;1677;49.576;10.990;2022-08-24T07:22:43;20.80;99.90
3330;DHT22;1677;49.576;10.990;2022-08-24T07:25:10;20.50;99.90
3330;DHT22;1677;49.576;10.990;2022-08-24T07:27:37;20.30;99.90
3330;DHT22;1677;49.576;10.990;2022-08-24T07:30:05;20.20;99.90
3330;DHT22;1677;49.576;10.990;2022-08-24T07:32:31;20.00;99.90
3330;DHT22;1677;49.576;10.990;2022-08-24T07:34:58;19.90;99.90
3330;DHT22;1677;49.576;10.990;2022-08-24T07:37:24;19.90;99.90
3330;DHT22;1677;49.576;10.990;2022-08-24T07:39:50;19.90;99.90
3330;DHT22;1677;49.576;10.990;2022-08-24T07:42:15;19.90;99.90
3330;DHT22;1677;49.576;10.990;2022-08-24T07:44:42;19.90;99.90
3330;DHT22;1677;49.576;10.990;2022-08-24T07:47:07;20.00;99.90
3330;DHT22;1677;49.576;10.990;2022-08-24T07:49:33;20.00;99.90
3330;DHT22;1677;49.576;10.990;2022-08-24T07:51:59;20.10;99.90
3330;DHT22;1677;49.576;10.990;2022-08-24T07:54:24;20.60;99.90
3330;DHT22;1677;49.576;10.990;2022-08-24T07:56:51;21.30;99.90
3330;DHT22;1677;49.576;10.990;2022-08-24T07:59:17;21.90;99.90
3330;DHT22;1677;49.576;10.990;2022-08-24T08:01:43;22.40;99.90
3330;DHT22;1677;49.576;10.990;2022-08-24T08:04:08;22.80;99.90
3330;DHT22;1677;49.576;10.990;2022-08-24T08:06:34;23.00;99.90
3330;DHT22;1677;49.576;10.990;2022-08-24T08:09:00;23.10;99.90
3330;DHT22;1677;49.576;10.990;2022-08-24T08:11:27;23.00;99.90
3330;DHT22;1677;49.576;10.990;2022-08-24T08:13:52;22.90;99.90
3330;DHT22;1677;49.576;10.990;2022-08-24T08:16:18;22.60;99.90
3330;DHT22;1677;49.576;10.990;2022-08-24T08:18:46;22.30;99.90
3330;DHT22;1677;49.576;10.990;2022-08-24T08:21:11;22.20;99.90
3330;DHT22;1677;49.576;10.990;2022-08-24T08:23:56;22.10;99.90
3330;DHT22;1677;49.576;10.990;2022-08-24T08:26:40;21.90;99.90
3330;DHT22;1677;49.576;10.990;2022-08-24T08:29:06;21.80;99.90
3330;DHT22;1677;49.576;10.990;2022-08-24T08:31:32;21.70;99.90
3330;DHT22;1677;49.576;10.990;2022-08-24T08:33:58;21.70;99.90
3330;DHT22;1677;49.576;10.990;2022-08-24T08:36:24;21.70;99.90
3330;DHT22;1677;49.576;10.990;2022-08-24T08:38:50;21.70;99.90
3330;DHT22;1677;49.576;10.990;2022-08-24T08:43:58;21.80;99.90
3330;DHT22;1677;49.576;10.990;2022-08-24T08:49:31;23.40;99.90
3330;DHT22;1677;49.576;10.990;2022-08-24T08:57:29;24.80;99.90
3330;DHT22;1677;49.576;10.990;2022-08-24T09:05:20;25.20;98.90
3330;DHT22;1677;49.576;10.990;2022-08-24T09:13:06;24.30;99.90
3330;DHT22;1677;49.576;10.990;2022-08-24T09:29:11;23.60;99.90
3330;DHT22;1677;49.576;10.990;2022-08-24T09:36:51;23.50;99.90
3330;DHT22;1677;49.576;10.990;2022-08-24T09:47:50;25.60;96.80
3330;DHT22;1677;49.576;10.990;2022-08-24T09:50:58;26.00;94.70
3330;DHT22;1677;49.576;10.990;2022-08-24T10:04:40;27.00;93.50
3330;DHT22;1677;49.576;10.990;2022-08-24T10:07:49;27.10;93.10
3330;DHT22;1677;49.576;10.990;2022-08-24T10:10:34;27.10;92.90
3330;DHT22;1677;49.576;10.990;2022-08-24T10:13:31;26.70;92.80
3330;DHT22;1677;49.576;10.990;2022-08-24T10:16:28;26.60;93.30
3330;DHT22;1677;49.576;10.990;2022-08-24T10:19:13;26.30;93.70
3330;DHT22;1677;49.576;10.990;2022-08-24T10:24:59;26.20;94.50
3330;DHT22;1677;49.576;10.990;2022-08-24T10:37:00;26.90;92.10
3330;DHT22;1677;49.576;10.990;2022-08-24T10:40:00;26.70;92.00
3330;DHT22;1677;49.576;10.990;2022-08-24T10:51:33;29.80;81.30
3330;DHT22;1677;49.576;10.990;2022-08-24T10:54:04;30.30;77.50
3330;DHT22;1677;49.576;10.990;2022-08-24T10:59:24;31.00;71.50
3330;DHT22;1677;49.576;10.990;2022-08-24T11:04:33;31.60;67.90
3330;DHT22;1677;49.576;10.990;2022-08-24T11:07:19;31.80;67.00
3330;DHT22;1677;49.576;10.990;2022-08-24T11:09:49;31.70;66.00
3330;DHT22;1677;49.576;10.990;2022-08-24T11:12:27;32.60;62.70
3330;DHT22;1677;49.576;10.990;2022-08-24T11:15:38;33.00;59.90
3330;DHT22;1677;49.576;10.990;2022-08-24T11:18:00;33.10;58.70
3330;DHT22;1677;49.576;10.990;2022-08-24T11:20:42;32.80;58.90
3330;DHT22;1677;49.576;10.990;2022-08-24T11:23:34;33.20;58.60
3330;DHT22;1677;49.576;10.990;2022-08-24T11:26:19;33.40;56.30
3330;DHT22;1677;49.576;10.990;2022-08-24T11:28:52;33.40;55.60
3330;DHT22;1677;49.576;10.990;2022-08-24T11:31:31;33.30;54.30
3330;DHT22;1677;49.576;10.990;2022-08-24T11:34:03;33.60;52.90
3330;DHT22;1677;49.576;10.990;2022-08-24T11:36:33;33.70;53.50
3330;DHT22;1677;49.576;10.990;2022-08-24T11:39:31;33.50;53.10
3330;DHT22;1677;49.576;10.990;2022-08-24T11:42:17;33.70;53.40
3330;DHT22;1677;49.576;10.990;2022-08-24T11:44:56;33.80;52.60
3330;DHT22;1677;49.576;10.990;2022-08-24T11:50:27;33.90;51.50
3330;DHT22;1677;49.576;10.990;2022-08-24T11:53:10;34.00;51.50
3330;DHT22;1677;49.576;10.990;2022-08-24T11:58:39;33.90;50.10
3330;DHT22;1677;49.576;10.990;2022-08-24T12:01:24;33.80;49.30
3330;DHT22;1677;49.576;10.990;2022-08-24T12:04:28;33.70;49.10
3330;DHT22;1677;49.576;10.990;2022-08-24T12:10:26;33.50;49.70
3330;DHT22;1677;49.576;10.990;2022-08-24T12:20:44;33.20;50.80
3330;DHT22;1677;49.576;10.990;2022-08-24T12:23:37;33.20;50.60
3330;DHT22;1677;49.576;10.990;2022-08-24T12:26:35;33.00;50.00
3330;DHT22;1677;49.576;10.990;2022-08-24T12:31:41;32.90;50.80
3330;DHT22;1677;49.576;10.990;2022-08-24T12:35:20;32.90;50.30
3330;DHT22;1677;49.576;10.990;2022-08-24T12:37:29;32.80;51.40
3330;DHT22;1677;49.576;10.990;2022-08-24T12:43:14;32.70;50.30
3330;DHT22;1677;49.576;10.990;2022-08-24T12:45:43;32.70;50.50
3330;DHT22;1677;49.576;10.990;2022-08-24T12:48:28;32.50;50.90
3330;DHT22;1677;49.576;10.990;2022-08-24T12:51:23;32.50;51.00
3330;DHT22;1677;49.576;10.990;2022-08-24T13:01:28;32.60;50.30
3330;DHT22;1677;49.576;10.990;2022-08-24T13:04:12;32.70;50.10
3330;DHT22;1677;49.576;10.990;2022-08-24T13:06:41;32.80;50.00
3330;DHT22;1677;49.576;10.990;2022-08-24T13:09:15;32.90;49.10
3330;DHT22;1677;49.576;10.990;2022-08-24T13:11:41;32.60;50.40
3330;DHT22;1677;49.576;10.990;2022-08-24T13:14:23;32.90;50.50
3330;DHT22;1677;49.576;10.990;2022-08-24T13:29:40;33.40;48.30
3330;DHT22;1677;49.576;10.990;2022-08-24T13:32:16;33.30;48.00
3330;DHT22;1677;49.576;10.990;2022-08-24T13:34:47;33.40;47.80
3330;DHT22;1677;49.576;10.990;2022-08-24T13:37:22;33.30;47.50
3330;DHT22;1677;49.576;10.990;2022-08-24T13:39:59;33.10;47.90
3330;DHT22;1677;49.576;10.990;2022-08-24T13:48:16;32.60;48.90
3330;DHT22;1677;49.576;10.990;2022-08-24T13:51:18;32.70;48.80
3330;DHT22;1677;49.576;10.990;2022-08-24T13:54:03;32.80;48.30
3330;DHT22;1677;49.576;10.990;2022-08-24T13:59:34;32.70;48.20
3330;DHT22;1677;49.576;10.990;2022-08-24T14:07:29;33.10;45.80
3330;DHT22;1677;49.576;10.990;2022-08-24T14:17:52;33.00;47.50
3330;DHT22;1677;49.576;10.990;2022-08-24T14:25:35;33.30;46.60
3330;DHT22;1677;49.576;10.990;2022-08-24T14:28:22;33.30;46.60
3330;DHT22;1677;49.576;10.990;2022-08-24T14:44:59;32.70;47.10
3330;DHT22;1677;49.576;10.990;2022-08-24T14:47:33;32.80;46.90
3330;DHT22;1677;49.576;10.990;2022-08-24T14:59:20;32.20;48.60
3330;DHT22;1677;49.576;10.990;2022-08-24T15:01:49;32.20;47.70
3330;DHT22;1677;49.576;10.990;2022-08-24T15:05:08;32.30;49.10
3330;DHT22;1677;49.576;10.990;2022-08-24T15:07:27;32.40;47.70
3330;DHT22;1677;49.576;10.990;2022-08-24T15:09:55;32.10;47.40
3330;DHT22;1677;49.576;10.990;2022-08-24T15:12:46;32.00;47.90
3330;DHT22;1677;49.576;10.990;2022-08-24T15:20:52;32.30;47.90
3330;DHT22;1677;49.576;10.990;2022-08-24T15:23:27;32.50;48.50
3330;DHT22;1677;49.576;10.990;2022-08-24T15:26:03;32.70;48.50
3330;DHT22;1677;49.576;10.990;2022-08-24T15:28:32;32.70;47.90
3330;DHT22;1677;49.576;10.990;2022-08-24T15:31:02;32.80;47.20
3330;DHT22;1677;49.576;10.990;2022-08-24T15:33:29;32.70;47.20
3330;DHT22;1677;49.576;10.990;2022-08-24T15:36:10;32.50;48.30
3330;DHT22;1677;49.576;10.990;2022-08-24T15:38:38;32.50;49.00
3330;DHT22;1677;49.576;10.990;2022-08-24T15:41:23;32.60;48.90
3330;DHT22;1677;49.576;10.990;2022-08-24T15:46:32;32.50;47.80
3330;DHT22;1677;49.576;10.990;2022-08-24T15:56:49;32.20;47.80
3330;DHT22;1677;49.576;10.990;2022-08-24T15:59:43;32.30;47.80
3330;DHT22;1677;49.576;10.990;2022-08-24T16:05:34;32.30;48.00
3330;DHT22;1677;49.576;10.990;2022-08-24T16:13:06;32.00;48.80
3330;DHT22;1677;49.576;10.990;2022-08-24T16:15:32;32.10;48.50
3330;DHT22;1677;49.576;10.990;2022-08-24T16:17:58;32.00;48.70
3330;DHT22;1677;49.576;10.990;2022-08-24T16:22:55;31.90;50.20
3330;DHT22;1677;49.576;10.990;2022-08-24T16:25:24;31.90;50.50
3330;DHT22;1677;49.576;10.990;2022-08-24T16:27:55;31.70;51.20
3330;DHT22;1677;49.576;10.990;2022-08-24T16:30:46;31.80;51.40
3330;DHT22;1677;49.576;10.990;2022-08-24T16:33:09;31.60;51.60
3330;DHT22;1677;49.576;10.990;2022-08-24T16:35:36;31.40;51.70
3330;DHT22;1677;49.576;10.990;2022-08-24T16:38:01;31.40;51.80
3330;DHT22;1677;49.576;10.990;2022-08-24T16:40:28;31.50;51.70
3330;DHT22;1677;49.576;10.990;2022-08-24T16:42:55;31.30;51.90
3330;DHT22;1677;49.576;10.990;2022-08-24T16:45:22;31.20;51.70
3330;DHT22;1677;49.576;10.990;2022-08-24T16:47:48;30.70;52.90
3330;DHT22;1677;49.576;10.990;2022-08-24T16:50:16;30.30;54.30
3330;DHT22;1677;49.576;10.990;2022-08-24T16:52:41;29.70;55.80
3330;DHT22;1677;49.576;10.990;2022-08-24T16:55:09;29.30;57.10
3330;DHT22;1677;49.576;10.990;2022-08-24T16:57:35;28.90;57.90
3330;DHT22;1677;49.576;10.990;2022-08-24T17:00:05;28.50;59.30
3330;DHT22;1677;49.576;10.990;2022-08-24T17:02:31;28.30;60.50
3330;DHT22;1677;49.576;10.990;2022-08-24T17:04:57;28.10;61.50
3330;DHT22;1677;49.576;10.990;2022-08-24T17:07:26;27.90;61.40
3330;DHT22;1677;49.576;10.990;2022-08-24T17:09:53;27.70;62.50
3330;DHT22;1677;49.576;10.990;2022-08-24T17:12:20;27.70;63.50
3330;DHT22;1677;49.576;10.990;2022-08-24T17:14:46;27.60;64.40
3330;DHT22;1677;49.576;10.990;2022-08-24T17:17:15;27.70;65.20
3330;DHT22;1677;49.576;10.990;2022-08-24T17:19:41;28.40;63.70
3330;DHT22;1677;49.576;10.990;2022-08-24T17:22:06;29.30;60.70
3330;DHT22;1677;49.576;10.990;2022-08-24T17:24:33;29.50;59.10
3330;DHT22;1677;49.576;10.990;2022-08-24T17:27:00;29.90;58.10
3330;DHT22;1677;49.576;10.990;2022-08-24T17:29:26;30.00;57.30
3330;DHT22;1677;49.576;10.990;2022-08-24T17:31:52;30.10;57.40
3330;DHT22;1677;49.576;10.990;2022-08-24T17:34:19;30.00;57.70
3330;DHT22;1677;49.576;10.990;2022-08-24T17:36:49;30.00;57.80
3330;DHT22;1677;49.576;10.990;2022-08-24T17:39:16;30.20;57.70
3330;DHT22;1677;49.576;10.990;2022-08-24T17:41:42;30.20;56.90
3330;DHT22;1677;49.576;10.990;2022-08-24T17:44:10;30.20;57.80
3330;DHT22;1677;49.576;10.990;2022-08-24T17:46:36;30.40;56.90
3330;DHT22;1677;49.576;10.990;2022-08-24T17:49:03;30.30;57.20
3330;DHT22;1677;49.576;10.990;2022-08-24T17:51:28;30.10;57.40
3330;DHT22;1677;49.576;10.990;2022-08-24T17:53:54;30.10;57.50
3330;DHT22;1677;49.576;10.990;2022-08-24T17:56:20;30.00;57.60
3330;DHT22;1677;49.576;10.990;2022-08-24T17:58:46;30.20;57.30
3330;DHT22;1677;49.576;10.990;2022-08-24T18:01:30;30.10;57.40
3330;DHT22;1677;49.576;10.990;2022-08-24T18:03:56;30.20;57.10
3330;DHT22;1677;49.576;10.990;2022-08-24T18:06:23;30.10;57.30
3330;DHT22;1677;49.576;10.990;2022-08-24T18:08:50;30.00;57.60
3330;DHT22;1677;49.576;10.990;2022-08-24T18:11:17;30.00;57.50
3330;DHT22;1677;49.576;10.990;2022-08-24T18:13:43;30.10;57.20
3330;DHT22;1677;49.576;10.990;2022-08-24T18:16:12;30.10;57.60
3330;DHT22;1677;49.576;10.990;2022-08-24T18:18:40;30.00;57.40
3330;DHT22;1677;49.576;10.990;2022-08-24T18:21:06;30.10;57.70
3330;DHT22;1677;49.576;10.990;2022-08-24T18:23:32;30.00;57.40
3330;DHT22;1677;49.576;10.990;2022-08-24T18:25:58;29.90;57.70
3330;DHT22;1677;49.576;10.990;2022-08-24T18:28:23;29.90;58.60
3330;DHT22;1677;49.576;10.990;2022-08-24T18:30:49;29.90;58.40
3330;DHT22;1677;49.576;10.990;2022-08-24T18:33:15;30.00;58.90
3330;DHT22;1677;49.576;10.990;2022-08-24T18:35:42;30.10;58.10
3330;DHT22;1677;49.576;10.990;2022-08-24T18:38:07;30.00;57.90
3330;DHT22;1677;49.576;10.990;2022-08-24T18:40:33;30.10;58.30
3330;DHT22;1677;49.576;10.990;2022-08-24T18:42:59;30.10;59.00
3330;DHT22;1677;49.576;10.990;2022-08-24T18:45:28;30.00;59.20
3330;DHT22;1677;49.576;10.990;2022-08-24T18:47:54;29.90;59.20
3330;DHT22;1677;49.576;10.990;2022-08-24T18:50:20;29.80;60.30
3330;DHT22;1677;49.576;10.990;2022-08-24T18:52:45;29.80;60.20
3330;DHT22;1677;49.576;10.990;2022-08-24T18:55:12;29.80;60.30
3330;DHT22;1677;49.576;10.990;2022-08-24T18:57:37;29.80;59.60
3330;DHT22;1677;49.576;10.990;2022-08-24T19:00:06;29.90;59.60
3330;DHT22;1677;49.576;10.990;2022-08-24T19:02:32;29.80;59.90
3330;DHT22;1677;49.576;10.990;2022-08-24T19:05:06;29.90;60.20
3330;DHT22;1677;49.576;10.990;2022-08-24T19:07:39;29.90;60.60
3330;DHT22;1677;49.576;10.990;2022-08-24T19:10:07;29.80;60.50
3330;DHT22;1677;49.576;10.990;2022-08-24T19:13:17;29.80;60.70
3330;DHT22;1677;49.576;10.990;2022-08-24T19:15:24;29.70;60.70
3330;DHT22;1677;49.576;10.990;2022-08-24T19:17:50;29.60;61.30
3330;DHT22;1677;49.576;10.990;2022-08-24T19:20:16;29.60;61.50
3330;DHT22;1677;49.576;10.990;2022-08-24T19:22:42;29.50;61.30
3330;DHT22;1677;49.576;10.990;2022-08-24T19:25:15;29.40;61.40
3330;DHT22;1677;49.576;10.990;2022-08-24T19:27:42;29.40;62.10
3330;DHT22;1677;49.576;10.990;2022-08-24T19:30:09;29.50;61.60
3330;DHT22;1677;49.576;10.990;2022-08-24T19:32:34;29.50;61.90